sensor_id;sensor_type;location;lat;lon;timestamp;P1;durP1;ratioP1;P2;durP2;ratioP2
66402;SDS011;53212;52.112;5.144;2024-02-26T00:01:56;2.90;;;2.60;;
66402;SDS011;53212;52.112;5.144;2024-02-26T00:04:22;4.60;;;3.00;;
66402;SDS011;53212;52.112;5.144;2024-02-26T00:06:47;3.30;;;2.60;;
66402;SDS011;53212;52.112;5.144;2024-02-26T00:09:15;4.20;;;3.20;;
66402;SDS011;53212;52.112;5.144;2024-02-26T00:11:41;4.40;;;2.60;;
66402;SDS011;53212;52.112;5.144;2024-02-26T00:14:06;3.30;;;2.70;;
66402;SDS011;53212;52.112;5.144;2024-02-26T00:16:32;3.10;;;2.50;;
66402;SDS011;53212;52.112;5.144;2024-02-26T00:18:57;2.70;;;2.50;;
66402;SDS011;53212;52.112;5.144;2024-02-26T00:21:23;2.70;;;2.50;;
66402;SDS011;53212;52.112;5.144;2024-02-26T00:23:49;3.00;;;2.70;;
66402;SDS011;53212;52.112;5.144;2024-02-26T00:26:16;3.50;;;2.80;;
66402;SDS011;53212;52.112;5.144;2024-02-26T00:28:41;3.20;;;3.00;;
66402;SDS011;53212;52.112;5.144;2024-02-26T00:31:08;3.20;;;3.00;;
66402;SDS011;53212;52.112;5.144;2024-02-26T00:33:34;4.30;;;3.50;;
66402;SDS011;53212;52.112;5.144;2024-02-26T00:35:59;3.50;;;3.20;;
66402;SDS011;53212;52.112;5.144;2024-02-26T00:38:25;3.50;;;3.20;;
66402;SDS011;53212;52.112;5.144;2024-02-26T00:40:50;3.90;;;3.20;;
66402;SDS011;53212;52.112;5.144;2024-02-26T00:43:16;4.70;;;3.60;;
66402;SDS011;53212;52.112;5.144;2024-02-26T00:45:41;3.50;;;3.30;;
66402;SDS011;53212;52.112;5.144;2024-02-26T00:48:07;3.40;;;3.10;;
66402;SDS011;53212;52.112;5.144;2024-02-26T00:50:36;6.00;;;3.90;;
66402;SDS011;53212;52.112;5.144;2024-02-26T00:53:01;4.50;;;3.70;;
66402;SDS011;53212;52.112;5.144;2024-02-26T00:55:27;4.10;;;3.70;;
66402;SDS011;53212;52.112;5.144;2024-02-26T00:57:52;3.50;;;3.20;;
66402;SDS011;53212;52.112;5.144;2024-02-26T01:00:21;4.30;;;3.90;;
66402;SDS011;53212;52.112;5.144;2024-02-26T01:02:47;4.00;;;3.60;;
66402;SDS011;53212;52.112;5.144;2024-02-26T01:05:13;4.60;;;3.80;;
66402;SDS011;53212;52.112;5.144;2024-02-26T01:07:40;4.30;;;3.80;;
66402;SDS011;53212;52.112;5.144;2024-02-26T01:10:06;4.20;;;3.80;;
66402;SDS011;53212;52.112;5.144;2024-02-26T01:12:33;6.30;;;4.10;;
66402;SDS011;53212;52.112;5.144;2024-02-26T01:15:00;3.40;;;3.20;;
66402;SDS011;53212;52.112;5.144;2024-02-26T01:17:26;5.20;;;4.70;;
66402;SDS011;53212;52.112;5.144;2024-02-26T01:19:51;5.70;;;4.00;;
66402;SDS011;53212;52.112;5.144;2024-02-26T01:22:18;3.90;;;3.60;;
66402;SDS011;53212;52.112;5.144;2024-02-26T01:24:44;4.00;;;3.60;;
66402;SDS011;53212;52.112;5.144;2024-02-26T01:27:09;4.00;;;3.70;;
66402;SDS011;53212;52.112;5.144;2024-02-26T01:29:35;4.20;;;3.80;;
66402;SDS011;53212;52.112;5.144;2024-02-26T01:32:00;5.60;;;3.90;;
66402;SDS011;53212;52.112;5.144;2024-02-26T01:34:26;4.20;;;3.80;;
66402;SDS011;53212;52.112;5.144;2024-02-26T01:36:51;3.80;;;3.50;;
66402;SDS011;53212;52.112;5.144;2024-02-26T01:39:17;4.20;;;3.90;;
66402;SDS011;53212;52.112;5.144;2024-02-26T01:41:43;4.10;;;3.80;;
66402;SDS011;53212;52.112;5.144;2024-02-26T01:44:08;4.40;;;4.00;;
66402;SDS011;53212;52.112;5.144;2024-02-26T01:46:37;5.20;;;4.30;;
66402;SDS011;53212;52.112;5.144;2024-02-26T01:49:03;4.20;;;3.90;;
66402;SDS011;53212;52.112;5.144;2024-02-26T01:51:29;4.30;;;3.90;;
66402;SDS011;53212;52.112;5.144;2024-02-26T01:53:56;4.20;;;3.90;;
66402;SDS011;53212;52.112;5.144;2024-02-26T01:56:26;4.90;;;4.40;;
66402;SDS011;53212;52.112;5.144;2024-02-26T01:58:56;4.80;;;4.40;;
66402;SDS011;53212;52.112;5.144;2024-02-26T02:01:22;4.90;;;4.00;;
66402;SDS011;53212;52.112;5.144;2024-02-26T02:03:59;4.70;;;4.20;;
66402;SDS011;53212;52.112;5.144;2024-02-26T02:06:26;5.10;;;4.60;;
66402;SDS011;53212;52.112;5.144;2024-02-26T02:08:55;4.80;;;4.40;;
66402;SDS011;53212;52.112;5.144;2024-02-26T02:11:21;5.10;;;4.70;;
66402;SDS011;53212;52.112;5.144;2024-02-26T02:13:46;5.00;;;4.60;;
66402;SDS011;53212;52.112;5.144;2024-02-26T02:16:12;5.90;;;4.70;;
66402;SDS011;53212;52.112;5.144;2024-02-26T02:18:38;4.70;;;4.30;;
66402;SDS011;53212;52.112;5.144;2024-02-26T02:21:04;4.70;;;4.30;;
66402;SDS011;53212;52.112;5.144;2024-02-26T02:23:29;5.50;;;4.70;;
66402;SDS011;53212;52.112;5.144;2024-02-26T02:25:55;5.40;;;5.00;;
66402;SDS011;53212;52.112;5.144;2024-02-26T02:28:23;5.10;;;4.70;;
66402;SDS011;53212;52.112;5.144;2024-02-26T02:30:50;6.30;;;5.50;;
66402;SDS011;53212;52.112;5.144;2024-02-26T02:33:16;5.30;;;4.80;;
66402;SDS011;53212;52.112;5.144;2024-02-26T02:35:42;5.90;;;5.40;;
66402;SDS011;53212;52.112;5.144;2024-02-26T02:38:08;5.40;;;5.00;;
66402;SDS011;53212;52.112;5.144;2024-02-26T02:40:34;5.70;;;5.20;;
66402;SDS011;53212;52.112;5.144;2024-02-26T02:42:59;6.30;;;5.50;;
66402;SDS011;53212;52.112;5.144;2024-02-26T02:45:27;6.50;;;5.70;;
66402;SDS011;53212;52.112;5.144;2024-02-26T02:47:53;6.50;;;5.90;;
66402;SDS011;53212;52.112;5.144;2024-02-26T02:50:19;6.40;;;5.80;;
66402;SDS011;53212;52.112;5.144;2024-02-26T02:52:44;6.30;;;5.70;;
66402;SDS011;53212;52.112;5.144;2024-02-26T02:55:10;7.00;;;6.30;;
66402;SDS011;53212;52.112;5.144;2024-02-26T02:57:36;6.30;;;5.80;;
66402;SDS011;53212;52.112;5.144;2024-02-26T03:00:09;7.50;;;6.20;;
66402;SDS011;53212;52.112;5.144;2024-02-26T03:02:35;6.50;;;6.00;;
66402;SDS011;53212;52.112;5.144;2024-02-26T03:05:04;7.10;;;6.50;;
66402;SDS011;53212;52.112;5.144;2024-02-26T03:07:30;7.90;;;6.70;;
66402;SDS011;53212;52.112;5.144;2024-02-26T03:09:55;7.30;;;6.60;;
66402;SDS011;53212;52.112;5.144;2024-02-26T03:12:21;7.00;;;6.40;;
66402;SDS011;53212;52.112;5.144;2024-02-26T03:14:46;8.40;;;7.00;;
66402;SDS011;53212;52.112;5.144;2024-02-26T03:17:13;7.00;;;6.10;;
66402;SDS011;53212;52.112;5.144;2024-02-26T03:19:38;7.60;;;6.80;;
66402;SDS011;53212;52.112;5.144;2024-02-26T03:22:04;7.30;;;6.70;;
66402;SDS011;53212;52.112;5.144;2024-02-26T03:24:29;8.50;;;7.50;;
66402;SDS011;53212;52.112;5.144;2024-02-26T03:26:55;8.20;;;7.40;;
66402;SDS011;53212;52.112;5.144;2024-02-26T03:29:21;7.30;;;6.60;;
66402;SDS011;53212;52.112;5.144;2024-02-26T03:31:47;7.70;;;6.90;;
66402;SDS011;53212;52.112;5.144;2024-02-26T03:34:12;8.10;;;7.20;;
66402;SDS011;53212;52.112;5.144;2024-02-26T03:36:40;8.20;;;7.20;;
66402;SDS011;53212;52.112;5.144;2024-02-26T03:39:06;8.50;;;7.50;;
66402;SDS011;53212;52.112;5.144;2024-02-26T03:41:33;11.40;;;7.70;;
66402;SDS011;53212;52.112;5.144;2024-02-26T03:44:01;8.10;;;7.20;;
66402;SDS011;53212;52.112;5.144;2024-02-26T03:46:27;8.10;;;7.20;;
66402;SDS011;53212;52.112;5.144;2024-02-26T03:48:52;8.70;;;7.30;;
66402;SDS011;53212;52.112;5.144;2024-02-26T03:51:18;8.40;;;7.60;;
66402;SDS011;53212;52.112;5.144;2024-02-26T03:53:43;8.30;;;7.50;;
66402;SDS011;53212;52.112;5.144;2024-02-26T03:56:11;9.80;;;7.90;;
66402;SDS011;53212;52.112;5.144;2024-02-26T03:58:43;10.10;;;7.40;;
66402;SDS011;53212;52.112;5.144;2024-02-26T04:01:08;8.40;;;7.60;;
66402;SDS011;53212;52.112;5.144;2024-02-26T04:03:34;8.30;;;7.60;;
66402;SDS011;53212;52.112;5.144;2024-02-26T04:06:00;8.50;;;7.60;;
66402;SDS011;53212;52.112;5.144;2024-02-26T04:08:31;8.40;;;7.50;;
66402;SDS011;53212;52.112;5.144;2024-02-26T04:10:56;8.00;;;7.30;;
66402;SDS011;53212;52.112;5.144;2024-02-26T04:13:22;8.10;;;7.20;;
66402;SDS011;53212;52.112;5.144;2024-02-26T04:15:47;9.60;;;8.00;;
66402;SDS011;53212;52.112;5.144;2024-02-26T04:18:13;8.20;;;7.40;;
66402;SDS011;53212;52.112;5.144;2024-02-26T04:20:39;8.20;;;7.20;;
66402;SDS011;53212;52.112;5.144;2024-02-26T04:23:07;9.20;;;8.30;;
66402;SDS011;53212;52.112;5.144;2024-02-26T04:25:33;9.10;;;8.10;;
66402;SDS011;53212;52.112;5.144;2024-02-26T04:27:58;9.40;;;8.10;;
66402;SDS011;53212;52.112;5.144;2024-02-26T04:30:24;11.10;;;8.30;;
66402;SDS011;53212;52.112;5.144;2024-02-26T04:32:49;8.50;;;7.80;;
66402;SDS011;53212;52.112;5.144;2024-02-26T04:35:15;9.30;;;8.20;;
66402;SDS011;53212;52.112;5.144;2024-02-26T04:37:40;9.70;;;8.70;;
66402;SDS011;53212;52.112;5.144;2024-02-26T04:40:06;9.90;;;9.00;;
66402;SDS011;53212;52.112;5.144;2024-02-26T04:42:33;9.20;;;8.20;;
66402;SDS011;53212;52.112;5.144;2024-02-26T04:44:58;10.20;;;9.30;;
66402;SDS011;53212;52.112;5.144;2024-02-26T04:47:24;10.10;;;9.20;;
66402;SDS011;53212;52.112;5.144;2024-02-26T04:49:51;10.40;;;9.40;;
66402;SDS011;53212;52.112;5.144;2024-02-26T04:52:18;11.40;;;9.70;;
66402;SDS011;53212;52.112;5.144;2024-02-26T04:54:44;11.30;;;10.20;;
66402;SDS011;53212;52.112;5.144;2024-02-26T04:57:09;10.80;;;9.70;;
66402;SDS011;53212;52.112;5.144;2024-02-26T04:59:35;10.70;;;9.80;;
66402;SDS011;53212;52.112;5.144;2024-02-26T05:02:00;10.40;;;9.50;;
66402;SDS011;53212;52.112;5.144;2024-02-26T05:04:26;10.50;;;9.40;;
66402;SDS011;53212;52.112;5.144;2024-02-26T05:06:51;10.60;;;9.40;;
66402;SDS011;53212;52.112;5.144;2024-02-26T05:09:17;10.30;;;9.40;;
66402;SDS011;53212;52.112;5.144;2024-02-26T05:11:42;10.50;;;9.50;;
66402;SDS011;53212;52.112;5.144;2024-02-26T05:14:08;9.60;;;8.70;;
66402;SDS011;53212;52.112;5.144;2024-02-26T05:16:34;10.40;;;9.50;;
66402;SDS011;53212;52.112;5.144;2024-02-26T05:18:59;9.80;;;8.90;;
66402;SDS011;53212;52.112;5.144;2024-02-26T05:21:24;9.90;;;8.90;;
66402;SDS011;53212;52.112;5.144;2024-02-26T05:23:50;10.20;;;9.20;;
66402;SDS011;53212;52.112;5.144;2024-02-26T05:26:22;10.10;;;9.20;;
66402;SDS011;53212;52.112;5.144;2024-02-26T05:28:50;9.50;;;8.70;;
66402;SDS011;53212;52.112;5.144;2024-02-26T05:31:16;10.40;;;9.20;;
66402;SDS011;53212;52.112;5.144;2024-02-26T05:33:42;10.80;;;9.60;;
66402;SDS011;53212;52.112;5.144;2024-02-26T05:36:07;11.20;;;9.40;;
66402;SDS011;53212;52.112;5.144;2024-02-26T05:38:33;10.50;;;9.30;;
66402;SDS011;53212;52.112;5.144;2024-02-26T05:40:59;12.70;;;8.90;;
66402;SDS011;53212;52.112;5.144;2024-02-26T05:43:25;9.80;;;8.90;;
66402;SDS011;53212;52.112;5.144;2024-02-26T05:45:53;10.20;;;9.20;;
66402;SDS011;53212;52.112;5.144;2024-02-26T05:48:19;10.90;;;9.70;;
66402;SDS011;53212;52.112;5.144;2024-02-26T05:50:45;11.30;;;10.20;;
66402;SDS011;53212;52.112;5.144;2024-02-26T05:53:11;12.30;;;10.10;;
66402;SDS011;53212;52.112;5.144;2024-02-26T05:55:37;11.20;;;9.90;;
66402;SDS011;53212;52.112;5.144;2024-02-26T05:58:03;11.50;;;9.50;;
66402;SDS011;53212;52.112;5.144;2024-02-26T06:00:28;11.20;;;9.30;;
66402;SDS011;53212;52.112;5.144;2024-02-26T06:02:54;10.60;;;9.50;;
66402;SDS011;53212;52.112;5.144;2024-02-26T06:05:19;10.90;;;9.90;;
66402;SDS011;53212;52.112;5.144;2024-02-26T06:07:45;12.90;;;10.50;;
66402;SDS011;53212;52.112;5.144;2024-02-26T06:10:10;12.70;;;10.80;;
66402;SDS011;53212;52.112;5.144;2024-02-26T06:12:36;11.80;;;10.60;;
66402;SDS011;53212;52.112;5.144;2024-02-26T06:15:02;13.50;;;11.90;;
66402;SDS011;53212;52.112;5.144;2024-02-26T06:17:29;12.80;;;11.20;;
66402;SDS011;53212;52.112;5.144;2024-02-26T06:19:54;13.00;;;11.10;;
66402;SDS011;53212;52.112;5.144;2024-02-26T06:22:20;13.60;;;12.20;;
66402;SDS011;53212;52.112;5.144;2024-02-26T06:24:45;14.10;;;11.50;;
66402;SDS011;53212;52.112;5.144;2024-02-26T06:27:11;14.20;;;12.00;;
66402;SDS011;53212;52.112;5.144;2024-02-26T06:29:37;14.40;;;11.30;;
66402;SDS011;53212;52.112;5.144;2024-02-26T06:32:03;16.40;;;12.40;;
66402;SDS011;53212;52.112;5.144;2024-02-26T06:34:28;16.20;;;12.30;;
66402;SDS011;53212;52.112;5.144;2024-02-26T06:36:54;15.30;;;13.10;;
66402;SDS011;53212;52.112;5.144;2024-02-26T06:39:19;16.60;;;13.70;;
66402;SDS011;53212;52.112;5.144;2024-02-26T06:41:45;14.40;;;12.70;;
66402;SDS011;53212;52.112;5.144;2024-02-26T06:44:13;15.30;;;13.60;;
66402;SDS011;53212;52.112;5.144;2024-02-26T06:46:40;17.80;;;12.80;;
66402;SDS011;53212;52.112;5.144;2024-02-26T06:49:05;16.90;;;15.10;;
66402;SDS011;53212;52.112;5.144;2024-02-26T06:51:31;19.50;;;14.00;;
66402;SDS011;53212;52.112;5.144;2024-02-26T06:53:56;18.50;;;13.70;;
66402;SDS011;53212;52.112;5.144;2024-02-26T06:56:21;17.00;;;14.90;;
66402;SDS011;53212;52.112;5.144;2024-02-26T06:58:47;17.50;;;15.50;;
66402;SDS011;53212;52.112;5.144;2024-02-26T07:01:12;20.30;;;14.00;;
66402;SDS011;53212;52.112;5.144;2024-02-26T07:03:40;18.50;;;15.90;;
66402;SDS011;53212;52.112;5.144;2024-02-26T07:06:06;17.10;;;15.30;;
66402;SDS011;53212;52.112;5.144;2024-02-26T07:08:32;19.30;;;16.20;;
66402;SDS011;53212;52.112;5.144;2024-02-26T07:10:57;19.20;;;17.10;;
66402;SDS011;53212;52.112;5.144;2024-02-26T07:13:23;21.90;;;17.60;;
66402;SDS011;53212;52.112;5.144;2024-02-26T07:15:49;20.80;;;17.40;;
66402;SDS011;53212;52.112;5.144;2024-02-26T07:18:14;23.20;;;18.20;;
66402;SDS011;53212;52.112;5.144;2024-02-26T07:20:40;25.00;;;17.30;;
66402;SDS011;53212;52.112;5.144;2024-02-26T07:23:05;23.00;;;17.40;;
66402;SDS011;53212;52.112;5.144;2024-02-26T07:25:32;25.50;;;18.50;;
66402;SDS011;53212;52.112;5.144;2024-02-26T07:27:57;23.60;;;17.40;;
66402;SDS011;53212;52.112;5.144;2024-02-26T07:30:25;24.40;;;18.20;;
66402;SDS011;53212;52.112;5.144;2024-02-26T07:32:52;21.40;;;19.10;;
66402;SDS011;53212;52.112;5.144;2024-02-26T07:35:17;23.40;;;18.50;;
66402;SDS011;53212;52.112;5.144;2024-02-26T07:37:43;22.20;;;19.50;;
66402;SDS011;53212;52.112;5.144;2024-02-26T07:40:09;23.80;;;19.60;;
66402;SDS011;53212;52.112;5.144;2024-02-26T07:42:35;20.50;;;18.30;;
66402;SDS011;53212;52.112;5.144;2024-02-26T07:45:02;20.90;;;17.50;;
66402;SDS011;53212;52.112;5.144;2024-02-26T07:47:29;19.70;;;17.70;;
66402;SDS011;53212;52.112;5.144;2024-02-26T07:49:56;21.50;;;19.10;;
66402;SDS011;53212;52.112;5.144;2024-02-26T07:52:21;19.40;;;17.40;;
66402;SDS011;53212;52.112;5.144;2024-02-26T07:54:46;22.10;;;17.30;;
66402;SDS011;53212;52.112;5.144;2024-02-26T07:57:12;23.20;;;16.90;;
66402;SDS011;53212;52.112;5.144;2024-02-26T07:59:41;21.00;;;15.80;;
66402;SDS011;53212;52.112;5.144;2024-02-26T08:02:07;18.30;;;15.20;;
66402;SDS011;53212;52.112;5.144;2024-02-26T08:04:33;17.50;;;15.70;;
66402;SDS011;53212;52.112;5.144;2024-02-26T08:06:58;16.50;;;14.40;;
66402;SDS011;53212;52.112;5.144;2024-02-26T08:09:23;16.50;;;13.80;;
66402;SDS011;53212;52.112;5.144;2024-02-26T08:11:49;16.20;;;14.60;;
66402;SDS011;53212;52.112;5.144;2024-02-26T08:14:14;15.10;;;13.50;;
66402;SDS011;53212;52.112;5.144;2024-02-26T08:16:40;13.50;;;12.30;;
66402;SDS011;53212;52.112;5.144;2024-02-26T08:19:05;13.70;;;12.30;;
66402;SDS011;53212;52.112;5.144;2024-02-26T08:21:31;13.90;;;11.20;;
66402;SDS011;53212;52.112;5.144;2024-02-26T08:23:56;12.20;;;11.00;;
66402;SDS011;53212;52.112;5.144;2024-02-26T08:26:22;12.50;;;11.20;;
66402;SDS011;53212;52.112;5.144;2024-02-26T08:28:49;12.00;;;9.90;;
66402;SDS011;53212;52.112;5.144;2024-02-26T08:31:16;11.70;;;10.40;;
66402;SDS011;53212;52.112;5.144;2024-02-26T08:33:42;10.70;;;9.70;;
66402;SDS011;53212;52.112;5.144;2024-02-26T08:36:08;11.30;;;10.00;;
66402;SDS011;53212;52.112;5.144;2024-02-26T08:38:33;11.00;;;9.20;;
66402;SDS011;53212;52.112;5.144;2024-02-26T08:41:01;10.20;;;9.10;;
66402;SDS011;53212;52.112;5.144;2024-02-26T08:43:28;10.40;;;9.40;;
66402;SDS011;53212;52.112;5.144;2024-02-26T08:45:53;9.30;;;8.50;;
66402;SDS011;53212;52.112;5.144;2024-02-26T08:48:19;9.50;;;8.60;;
66402;SDS011;53212;52.112;5.144;2024-02-26T08:50:44;8.70;;;8.00;;
66402;SDS011;53212;52.112;5.144;2024-02-26T08:53:10;9.20;;;8.30;;
66402;SDS011;53212;52.112;5.144;2024-02-26T08:55:35;9.00;;;8.20;;
66402;SDS011;53212;52.112;5.144;2024-02-26T08:58:01;9.60;;;8.60;;
66402;SDS011;53212;52.112;5.144;2024-02-26T09:00:26;8.50;;;7.70;;
66402;SDS011;53212;52.112;5.144;2024-02-26T09:02:52;8.40;;;7.60;;
66402;SDS011;53212;52.112;5.144;2024-02-26T09:05:17;8.30;;;7.50;;
66402;SDS011;53212;52.112;5.144;2024-02-26T09:07:43;10.10;;;7.80;;
66402;SDS011;53212;52.112;5.144;2024-02-26T09:10:09;9.70;;;7.50;;
66402;SDS011;53212;52.112;5.144;2024-02-26T09:12:36;8.00;;;7.20;;
66402;SDS011;53212;52.112;5.144;2024-02-26T09:15:03;7.70;;;7.00;;
66402;SDS011;53212;52.112;5.144;2024-02-26T09:17:28;8.50;;;7.50;;
66402;SDS011;53212;52.112;5.144;2024-02-26T09:19:54;8.00;;;6.80;;
66402;SDS011;53212;52.112;5.144;2024-02-26T09:22:20;7.70;;;6.80;;
66402;SDS011;53212;52.112;5.144;2024-02-26T09:24:45;8.90;;;7.10;;
66402;SDS011;53212;52.112;5.144;2024-02-26T09:27:11;7.30;;;6.30;;
66402;SDS011;53212;52.112;5.144;2024-02-26T09:29:37;7.50;;;6.80;;
66402;SDS011;53212;52.112;5.144;2024-02-26T09:32:03;7.50;;;6.80;;
66402;SDS011;53212;52.112;5.144;2024-02-26T09:34:28;9.00;;;5.90;;
66402;SDS011;53212;52.112;5.144;2024-02-26T09:36:54;6.70;;;6.10;;
66402;SDS011;53212;52.112;5.144;2024-02-26T09:39:19;8.20;;;6.20;;
66402;SDS011;53212;52.112;5.144;2024-02-26T09:41:47;7.50;;;6.30;;
66402;SDS011;53212;52.112;5.144;2024-02-26T09:44:19;8.00;;;7.00;;
66402;SDS011;53212;52.112;5.144;2024-02-26T09:46:48;7.40;;;6.70;;
66402;SDS011;53212;52.112;5.144;2024-02-26T09:49:18;7.20;;;6.50;;
66402;SDS011;53212;52.112;5.144;2024-02-26T09:51:46;6.90;;;6.20;;
66402;SDS011;53212;52.112;5.144;2024-02-26T09:54:14;6.90;;;6.20;;
66402;SDS011;53212;52.112;5.144;2024-02-26T09:56:40;7.60;;;6.80;;
66402;SDS011;53212;52.112;5.144;2024-02-26T09:59:13;6.80;;;6.20;;
66402;SDS011;53212;52.112;5.144;2024-02-26T10:01:42;7.00;;;6.00;;
66402;SDS011;53212;52.112;5.144;2024-02-26T10:04:10;6.60;;;6.00;;
66402;SDS011;53212;52.112;5.144;2024-02-26T10:06:36;6.20;;;5.60;;
66402;SDS011;53212;52.112;5.144;2024-02-26T10:09:06;7.10;;;5.90;;
66402;SDS011;53212;52.112;5.144;2024-02-26T10:11:34;7.00;;;6.00;;
66402;SDS011;53212;52.112;5.144;2024-02-26T10:14:00;7.10;;;6.40;;
66402;SDS011;53212;52.112;5.144;2024-02-26T10:16:26;6.40;;;5.80;;
66402;SDS011;53212;52.112;5.144;2024-02-26T10:18:53;7.00;;;6.30;;
66402;SDS011;53212;52.112;5.144;2024-02-26T10:21:22;7.20;;;5.90;;
66402;SDS011;53212;52.112;5.144;2024-02-26T10:23:48;6.90;;;6.20;;
66402;SDS011;53212;52.112;5.144;2024-02-26T10:26:15;8.00;;;7.30;;
66402;SDS011;53212;52.112;5.144;2024-02-26T10:28:45;6.70;;;6.10;;
66402;SDS011;53212;52.112;5.144;2024-02-26T10:31:11;6.70;;;6.20;;
66402;SDS011;53212;52.112;5.144;2024-02-26T10:33:40;6.40;;;5.70;;
66402;SDS011;53212;52.112;5.144;2024-02-26T10:36:07;7.40;;;6.20;;
66402;SDS011;53212;52.112;5.144;2024-02-26T10:38:35;6.70;;;6.10;;
66402;SDS011;53212;52.112;5.144;2024-02-26T10:41:09;6.90;;;6.20;;
66402;SDS011;53212;52.112;5.144;2024-02-26T10:43:39;7.10;;;6.40;;
66402;SDS011;53212;52.112;5.144;2024-02-26T10:46:07;6.80;;;6.10;;
66402;SDS011;53212;52.112;5.144;2024-02-26T10:48:33;6.30;;;5.80;;
66402;SDS011;53212;52.112;5.144;2024-02-26T10:50:58;6.00;;;5.50;;
66402;SDS011;53212;52.112;5.144;2024-02-26T10:53:28;6.90;;;6.10;;
66402;SDS011;53212;52.112;5.144;2024-02-26T10:55:57;7.00;;;6.50;;
66402;SDS011;53212;52.112;5.144;2024-02-26T10:58:26;6.50;;;5.90;;
66402;SDS011;53212;52.112;5.144;2024-02-26T11:00:52;6.70;;;5.80;;
66402;SDS011;53212;52.112;5.144;2024-02-26T11:03:19;6.60;;;5.90;;
66402;SDS011;53212;52.112;5.144;2024-02-26T11:05:48;6.50;;;6.00;;
66402;SDS011;53212;52.112;5.144;2024-02-26T11:08:18;6.20;;;5.70;;
66402;SDS011;53212;52.112;5.144;2024-02-26T11:10:50;6.70;;;6.10;;
66402;SDS011;53212;52.112;5.144;2024-02-26T11:13:18;6.20;;;5.70;;
66402;SDS011;53212;52.112;5.144;2024-02-26T11:15:46;6.20;;;5.60;;
66402;SDS011;53212;52.112;5.144;2024-02-26T11:18:15;6.50;;;5.90;;
66402;SDS011;53212;52.112;5.144;2024-02-26T11:20:42;5.80;;;5.30;;
66402;SDS011;53212;52.112;5.144;2024-02-26T11:23:08;6.70;;;6.10;;
66402;SDS011;53212;52.112;5.144;2024-02-26T11:25:35;6.80;;;5.90;;
66402;SDS011;53212;52.112;5.144;2024-02-26T11:28:04;6.30;;;5.70;;
66402;SDS011;53212;52.112;5.144;2024-02-26T11:30:36;6.60;;;6.00;;
66402;SDS011;53212;52.112;5.144;2024-02-26T11:33:08;7.10;;;6.40;;
66402;SDS011;53212;52.112;5.144;2024-02-26T11:35:38;6.50;;;5.90;;
66402;SDS011;53212;52.112;5.144;2024-02-26T11:38:04;7.00;;;6.40;;
66402;SDS011;53212;52.112;5.144;2024-02-26T11:40:32;6.40;;;5.90;;
66402;SDS011;53212;52.112;5.144;2024-02-26T11:42:58;6.70;;;6.10;;
66402;SDS011;53212;52.112;5.144;2024-02-26T11:48:14;6.70;;;6.00;;
66402;SDS011;53212;52.112;5.144;2024-02-26T11:50:41;7.00;;;6.30;;
66402;SDS011;53212;52.112;5.144;2024-02-26T11:59:11;6.30;;;5.80;;
66402;SDS011;53212;52.112;5.144;2024-02-26T12:01:48;6.50;;;5.90;;
66402;SDS011;53212;52.112;5.144;2024-02-26T12:04:22;6.60;;;5.80;;
66402;SDS011;53212;52.112;5.144;2024-02-26T12:09:35;6.30;;;5.80;;
66402;SDS011;53212;52.112;5.144;2024-02-26T12:12:08;5.90;;;5.40;;
66402;SDS011;53212;52.112;5.144;2024-02-26T12:17:04;6.00;;;5.50;;
66402;SDS011;53212;52.112;5.144;2024-02-26T12:19:34;5.80;;;5.20;;
66402;SDS011;53212;52.112;5.144;2024-02-26T12:22:02;5.60;;;5.20;;
66402;SDS011;53212;52.112;5.144;2024-02-26T12:24:28;6.10;;;5.50;;
66402;SDS011;53212;52.112;5.144;2024-02-26T12:26:53;6.10;;;5.50;;
66402;SDS011;53212;52.112;5.144;2024-02-26T12:29:18;6.00;;;5.50;;
66402;SDS011;53212;52.112;5.144;2024-02-26T12:31:45;6.30;;;5.80;;
66402;SDS011;53212;52.112;5.144;2024-02-26T12:34:10;5.70;;;4.70;;
66402;SDS011;53212;52.112;5.144;2024-02-26T12:36:37;5.90;;;5.30;;
66402;SDS011;53212;52.112;5.144;2024-02-26T12:39:04;5.80;;;5.30;;
66402;SDS011;53212;52.112;5.144;2024-02-26T12:41:34;5.60;;;5.10;;
66402;SDS011;53212;52.112;5.144;2024-02-26T12:44:00;5.70;;;5.10;;
66402;SDS011;53212;52.112;5.144;2024-02-26T12:46:26;5.60;;;5.20;;
66402;SDS011;53212;52.112;5.144;2024-02-26T12:48:52;5.40;;;5.00;;
66402;SDS011;53212;52.112;5.144;2024-02-26T12:51:22;5.60;;;5.00;;
66402;SDS011;53212;52.112;5.144;2024-02-26T12:53:49;5.90;;;5.40;;
66402;SDS011;53212;52.112;5.144;2024-02-26T12:56:17;5.80;;;5.30;;
66402;SDS011;53212;52.112;5.144;2024-02-26T12:58:43;5.40;;;4.90;;
66402;SDS011;53212;52.112;5.144;2024-02-26T13:01:15;5.60;;;5.10;;
66402;SDS011;53212;52.112;5.144;2024-02-26T13:03:42;5.80;;;5.30;;
66402;SDS011;53212;52.112;5.144;2024-02-26T13:06:09;5.10;;;4.70;;
66402;SDS011;53212;52.112;5.144;2024-02-26T13:08:35;5.70;;;5.10;;
66402;SDS011;53212;52.112;5.144;2024-02-26T13:11:00;5.50;;;5.00;;
66402;SDS011;53212;52.112;5.144;2024-02-26T13:13:26;7.20;;;5.10;;
66402;SDS011;53212;52.112;5.144;2024-02-26T13:16:13;5.90;;;5.30;;
66402;SDS011;53212;52.112;5.144;2024-02-26T13:18:40;5.50;;;5.10;;
66402;SDS011;53212;52.112;5.144;2024-02-26T13:21:13;5.50;;;5.00;;
66402;SDS011;53212;52.112;5.144;2024-02-26T13:23:42;6.00;;;5.50;;
66402;SDS011;53212;52.112;5.144;2024-02-26T13:26:11;5.70;;;5.30;;
66402;SDS011;53212;52.112;5.144;2024-02-26T13:28:38;5.50;;;4.70;;
66402;SDS011;53212;52.112;5.144;2024-02-26T13:31:04;5.20;;;4.70;;
66402;SDS011;53212;52.112;5.144;2024-02-26T13:33:33;5.50;;;5.00;;
66402;SDS011;53212;52.112;5.144;2024-02-26T13:35:59;5.10;;;4.70;;
66402;SDS011;53212;52.112;5.144;2024-02-26T13:38:27;5.10;;;4.70;;
66402;SDS011;53212;52.112;5.144;2024-02-26T13:40:53;5.10;;;4.70;;
66402;SDS011;53212;52.112;5.144;2024-02-26T13:43:19;5.10;;;4.70;;
66402;SDS011;53212;52.112;5.144;2024-02-26T13:45:45;5.10;;;4.70;;
66402;SDS011;53212;52.112;5.144;2024-02-26T13:48:12;5.10;;;4.70;;
66402;SDS011;53212;52.112;5.144;2024-02-26T13:50:40;5.10;;;4.60;;
66402;SDS011;53212;52.112;5.144;2024-02-26T13:53:06;5.00;;;4.60;;
66402;SDS011;53212;52.112;5.144;2024-02-26T13:55:32;4.30;;;3.90;;
66402;SDS011;53212;52.112;5.144;2024-02-26T13:57:58;4.60;;;4.20;;
66402;SDS011;53212;52.112;5.144;2024-02-26T14:00:30;5.10;;;4.60;;
66402;SDS011;53212;52.112;5.144;2024-02-26T14:03:00;4.30;;;4.00;;
66402;SDS011;53212;52.112;5.144;2024-02-26T14:05:26;5.20;;;4.40;;
66402;SDS011;53212;52.112;5.144;2024-02-26T14:07:52;4.30;;;4.00;;
66402;SDS011;53212;52.112;5.144;2024-02-26T14:10:20;4.00;;;3.70;;
66402;SDS011;53212;52.112;5.144;2024-02-26T14:12:45;4.50;;;4.10;;
66402;SDS011;53212;52.112;5.144;2024-02-26T14:15:11;4.20;;;3.80;;
66402;SDS011;53212;52.112;5.144;2024-02-26T14:17:36;4.20;;;3.80;;
66402;SDS011;53212;52.112;5.144;2024-02-26T14:20:03;4.40;;;3.90;;
66402;SDS011;53212;52.112;5.144;2024-02-26T14:22:29;4.20;;;3.90;;
66402;SDS011;53212;52.112;5.144;2024-02-26T14:24:56;4.70;;;4.00;;
66402;SDS011;53212;52.112;5.144;2024-02-26T14:27:22;4.30;;;3.90;;
66402;SDS011;53212;52.112;5.144;2024-02-26T14:29:48;4.10;;;3.70;;
66402;SDS011;53212;52.112;5.144;2024-02-26T14:32:14;4.00;;;3.60;;
66402;SDS011;53212;52.112;5.144;2024-02-26T14:34:40;3.80;;;3.50;;
66402;SDS011;53212;52.112;5.144;2024-02-26T14:37:06;4.30;;;3.70;;
66402;SDS011;53212;52.112;5.144;2024-02-26T14:39:32;3.50;;;3.20;;
66402;SDS011;53212;52.112;5.144;2024-02-26T14:41:59;4.00;;;3.60;;
66402;SDS011;53212;52.112;5.144;2024-02-26T14:44:25;3.40;;;3.20;;
66402;SDS011;53212;52.112;5.144;2024-02-26T14:46:51;3.70;;;3.40;;
66402;SDS011;53212;52.112;5.144;2024-02-26T14:49:17;3.90;;;3.50;;
66402;SDS011;53212;52.112;5.144;2024-02-26T14:51:43;5.00;;;3.40;;